Airfield :
LOGIN :

Register | Disclaimer

   EN    FR    IT 

 










Legend :    VFR   Marginal VFR   IFR   Intensive IFR   Very Intensive IFR
Visi :
Ceiling :
>= 8 km
>= 3000ft
5 to 8 km
1000 to 3000 ft
1500m to 5 km
500 to 1000 ft
800 to 1500m
200 to 500 ft
< 800m
< 200 ft
Symbols :   Thunderstorms  Fog  Heavy snow  Heavy precipitations  Wind > 20 kt
SIGMETs :     Misc.  Thunderstorms  Icing  Turbulence  Mountain Waves  Volcanic Ashes






- Airport Elevation : 19 ft
- IATA code : LCY


EGLC - London City

CURRENT METAR :
  • 302120Z AUTO 21009KT 180V250 9999 -RA SCT018/// BKN034/// BKN046/// //////CB 15/13 Q1001 RERA

EXPIRED METARs :
  • 302050Z AUTO 20009KT 160V230 4400 RA BKN013/// BKN018/// //////CB 15/13 Q1002
  • 302020Z AUTO 18005KT 150V220 9999 -RA BKN015 BKN019 15/13 Q1002
  • 301950Z AUTO 20006KT 150V230 9999 -RA BKN016/// BKN026/// //////CB 15/13 Q1002
  • 301920Z AUTO 18007KT 150V230 9999 -RA SCT017/// SCT035/// //////TCU 16/13 Q1002
  • 301850Z AUTO 18009KT 9999 -RA FEW044/// //////CB 16/13 Q1003

Expired Forecast.
ATIS : +44 20 7646 0224



MET'MAP, your aeronautical weather chart ! - Copyright ORBIFLY December 2007 - Disclaimer

ORBIFLY MET'MAP TEAM :

Programming & Development : Alexandra Zaïnal
Concept & original design : Baudouin d'Aumeries
Assistance for programming : Marc-Olivier Méhu
Technical & hardware support : Manuel Goepfert

Contact : metmap@orbifly.com




SOURCES & CREDITS :

   NOAA